sensor_id;sensor_type;location;lat;lon;timestamp;pressure;altitude;pressure_sealevel;temperature;humidity
22572;BME280;11452;53.368;14.658;2023-03-19T00:04:44;100850.19;;;12.49;56.36
22572;BME280;11452;53.368;14.658;2023-03-19T00:09:50;100844.66;;;12.38;56.64
22572;BME280;11452;53.368;14.658;2023-03-19T00:14:55;100843.58;;;12.20;56.81
22572;BME280;11452;53.368;14.658;2023-03-19T00:20:01;100849.10;;;12.09;57.06
22572;BME280;11452;53.368;14.658;2023-03-19T00:25:07;100855.13;;;11.99;57.23
22572;BME280;11452;53.368;14.658;2023-03-19T00:30:13;100850.42;;;11.95;57.41
22572;BME280;11452;53.368;14.658;2023-03-19T00:35:19;100846.38;;;11.88;57.66
22572;BME280;11452;53.368;14.658;2023-03-19T00:40:25;100844.86;;;11.84;57.89
22572;BME280;11452;53.368;14.658;2023-03-19T00:45:30;100844.30;;;11.86;57.96
22572;BME280;11452;53.368;14.658;2023-03-19T00:50:37;100840.16;;;11.81;57.97
22572;BME280;11452;53.368;14.658;2023-03-19T00:55:44;100845.14;;;11.64;57.75
22572;BME280;11452;53.368;14.658;2023-03-19T01:00:54;100843.97;;;11.38;58.34
22572;BME280;11452;53.368;14.658;2023-03-19T01:06:00;100841.60;;;11.40;58.90
22572;BME280;11452;53.368;14.658;2023-03-19T01:11:12;100843.84;;;11.48;59.09
22572;BME280;11452;53.368;14.658;2023-03-19T01:16:18;100839.31;;;11.41;58.92
22572;BME280;11452;53.368;14.658;2023-03-19T01:21:24;100838.62;;;11.38;58.97
22572;BME280;11452;53.368;14.658;2023-03-19T01:26:30;100842.51;;;11.32;59.07
22572;BME280;11452;53.368;14.658;2023-03-19T01:31:37;100840.98;;;11.28;59.27
22572;BME280;11452;53.368;14.658;2023-03-19T01:36:48;100845.59;;;11.18;59.23
22572;BME280;11452;53.368;14.658;2023-03-19T01:41:59;100845.27;;;11.08;59.18
22572;BME280;11452;53.368;14.658;2023-03-19T01:47:06;100845.30;;;10.99;59.52
22572;BME280;11452;53.368;14.658;2023-03-19T01:52:15;100836.70;;;10.94;59.58
22572;BME280;11452;53.368;14.658;2023-03-19T01:57:25;100830.81;;;10.88;59.77
22572;BME280;11452;53.368;14.658;2023-03-19T02:02:49;100842.23;;;10.83;59.91
22572;BME280;11452;53.368;14.658;2023-03-19T02:08:02;100846.39;;;10.64;59.74
22572;BME280;11452;53.368;14.658;2023-03-19T02:13:09;100847.23;;;10.49;60.24
22572;BME280;11452;53.368;14.658;2023-03-19T02:18:17;100850.30;;;10.50;60.64
22572;BME280;11452;53.368;14.658;2023-03-19T02:28:38;100845.16;;;10.38;60.82
22572;BME280;11452;53.368;14.658;2023-03-19T02:34:03;100853.06;;;10.39;61.19
22572;BME280;11452;53.368;14.658;2023-03-19T02:39:09;100858.44;;;10.22;60.83
22572;BME280;11452;53.368;14.658;2023-03-19T02:44:14;100852.16;;;10.23;61.57
22572;BME280;11452;53.368;14.658;2023-03-19T02:49:21;100859.77;;;10.22;61.37
22572;BME280;11452;53.368;14.658;2023-03-19T02:54:28;100874.39;;;9.98;61.78
22572;BME280;11452;53.368;14.658;2023-03-19T02:59:34;100874.32;;;9.99;62.15
22572;BME280;11452;53.368;14.658;2023-03-19T03:04:39;100871.95;;;9.93;61.91
22572;BME280;11452;53.368;14.658;2023-03-19T03:09:45;100866.45;;;9.88;62.43
22572;BME280;11452;53.368;14.658;2023-03-19T03:14:51;100874.63;;;9.93;62.70
22572;BME280;11452;53.368;14.658;2023-03-19T03:19:56;100870.77;;;9.90;62.70
22572;BME280;11452;53.368;14.658;2023-03-19T03:25:02;100874.95;;;9.79;62.57
22572;BME280;11452;53.368;14.658;2023-03-19T03:30:10;100876.99;;;9.82;63.24
22572;BME280;11452;53.368;14.658;2023-03-19T03:35:16;100874.33;;;9.82;63.32
22572;BME280;11452;53.368;14.658;2023-03-19T03:40:23;100878.88;;;9.80;63.04
22572;BME280;11452;53.368;14.658;2023-03-19T03:45:30;100874.28;;;9.65;63.38
22572;BME280;11452;53.368;14.658;2023-03-19T03:50:36;100880.80;;;9.68;63.63
22572;BME280;11452;53.368;14.658;2023-03-19T03:55:44;100870.61;;;9.59;63.79
22572;BME280;11452;53.368;14.658;2023-03-19T04:00:50;100881.61;;;9.61;64.01
22572;BME280;11452;53.368;14.658;2023-03-19T04:05:58;100874.39;;;9.63;64.15
22572;BME280;11452;53.368;14.658;2023-03-19T04:11:08;100872.01;;;9.66;64.33
22572;BME280;11452;53.368;14.658;2023-03-19T04:16:13;100868.33;;;9.68;64.46
22572;BME280;11452;53.368;14.658;2023-03-19T04:21:20;100849.98;;;9.62;64.22
22572;BME280;11452;53.368;14.658;2023-03-19T04:26:26;100853.81;;;9.57;64.57
22572;BME280;11452;53.368;14.658;2023-03-19T04:31:32;100853.91;;;9.64;64.83
22572;BME280;11452;53.368;14.658;2023-03-19T04:36:38;100849.58;;;9.61;64.93
22572;BME280;11452;53.368;14.658;2023-03-19T04:41:44;100855.47;;;9.59;65.02
22572;BME280;11452;53.368;14.658;2023-03-19T04:46:51;100865.20;;;9.60;65.05
22572;BME280;11452;53.368;14.658;2023-03-19T04:51:57;100871.37;;;9.52;65.39
22572;BME280;11452;53.368;14.658;2023-03-19T04:57:03;100871.13;;;9.40;64.87
22572;BME280;11452;53.368;14.658;2023-03-19T05:02:10;100868.75;;;9.33;65.43
22572;BME280;11452;53.368;14.658;2023-03-19T05:07:16;100872.43;;;9.31;65.40
22572;BME280;11452;53.368;14.658;2023-03-19T05:12:23;100870.01;;;9.26;65.69
22572;BME280;11452;53.368;14.658;2023-03-19T05:17:30;100874.63;;;9.31;65.83
22572;BME280;11452;53.368;14.658;2023-03-19T05:22:46;100868.31;;;9.43;66.43
22572;BME280;11452;53.368;14.658;2023-03-19T05:27:53;100864.38;;;9.50;66.13
22572;BME280;11452;53.368;14.658;2023-03-19T05:33:01;100865.86;;;9.47;66.16
22572;BME280;11452;53.368;14.658;2023-03-19T05:38:11;100873.39;;;9.47;66.12
22572;BME280;11452;53.368;14.658;2023-03-19T05:43:18;100878.12;;;9.51;66.36
22572;BME280;11452;53.368;14.658;2023-03-19T05:48:25;100890.34;;;9.37;65.84
22572;BME280;11452;53.368;14.658;2023-03-19T05:53:31;100897.12;;;9.45;66.54
22572;BME280;11452;53.368;14.658;2023-03-19T05:58:38;100894.70;;;9.57;66.69
22572;BME280;11452;53.368;14.658;2023-03-19T06:03:44;100900.03;;;9.66;66.68
22572;BME280;11452;53.368;14.658;2023-03-19T06:08:50;100922.57;;;9.60;66.19
22572;BME280;11452;53.368;14.658;2023-03-19T06:13:58;100948.52;;;9.29;66.96
22572;BME280;11452;53.368;14.658;2023-03-19T06:19:05;100946.77;;;9.47;67.14
22572;BME280;11452;53.368;14.658;2023-03-19T06:24:12;100950.52;;;9.62;67.05
22572;BME280;11452;53.368;14.658;2023-03-19T06:29:18;100945.97;;;9.64;67.39
22572;BME280;11452;53.368;14.658;2023-03-19T06:34:25;100935.62;;;9.75;67.36
22572;BME280;11452;53.368;14.658;2023-03-19T06:39:31;100935.00;;;9.79;67.69
22572;BME280;11452;53.368;14.658;2023-03-19T06:44:38;100932.74;;;9.97;67.20
22572;BME280;11452;53.368;14.658;2023-03-19T06:49:43;100937.63;;;10.23;67.20
22572;BME280;11452;53.368;14.658;2023-03-19T06:54:51;100932.46;;;10.37;66.27
22572;BME280;11452;53.368;14.658;2023-03-19T06:59:56;100934.28;;;10.70;66.54
22572;BME280;11452;53.368;14.658;2023-03-19T07:05:02;100940.77;;;10.82;65.20
22572;BME280;11452;53.368;14.658;2023-03-19T07:10:09;100946.45;;;11.00;65.32
22572;BME280;11452;53.368;14.658;2023-03-19T07:15:15;100954.11;;;11.15;64.77
22572;BME280;11452;53.368;14.658;2023-03-19T07:20:22;100965.55;;;11.09;63.76
22572;BME280;11452;53.368;14.658;2023-03-19T07:25:28;100971.95;;;11.23;62.94
22572;BME280;11452;53.368;14.658;2023-03-19T07:30:34;100972.91;;;11.37;62.83
22572;BME280;11452;53.368;14.658;2023-03-19T07:35:41;100976.50;;;11.29;62.04
22572;BME280;11452;53.368;14.658;2023-03-19T07:40:46;100988.94;;;11.62;62.06
22572;BME280;11452;53.368;14.658;2023-03-19T07:45:53;101006.19;;;11.40;60.69
22572;BME280;11452;53.368;14.658;2023-03-19T07:50:59;101010.83;;;11.21;60.63
22572;BME280;11452;53.368;14.658;2023-03-19T07:56:06;101023.27;;;11.14;60.63
22572;BME280;11452;53.368;14.658;2023-03-19T08:01:12;101026.95;;;11.28;60.70
22572;BME280;11452;53.368;14.658;2023-03-19T08:06:17;101022.71;;;11.16;60.14
22572;BME280;11452;53.368;14.658;2023-03-19T08:11:23;101020.70;;;11.12;60.42
22572;BME280;11452;53.368;14.658;2023-03-19T08:16:29;101008.22;;;11.28;61.09
22572;BME280;11452;53.368;14.658;2023-03-19T08:21:35;100996.69;;;11.51;61.25
22572;BME280;11452;53.368;14.658;2023-03-19T08:26:41;100995.56;;;11.79;61.80
22572;BME280;11452;53.368;14.658;2023-03-19T08:31:47;100985.87;;;12.15;62.62
22572;BME280;11452;53.368;14.658;2023-03-19T08:36:52;100981.02;;;12.59;63.24
22572;BME280;11452;53.368;14.658;2023-03-19T08:41:58;100985.73;;;12.76;62.65
22572;BME280;11452;53.368;14.658;2023-03-19T08:47:03;100989.40;;;13.18;63.14
22572;BME280;11452;53.368;14.658;2023-03-19T08:52:09;100990.84;;;13.24;63.45
22572;BME280;11452;53.368;14.658;2023-03-19T08:57:15;100984.03;;;13.18;62.99
22572;BME280;11452;53.368;14.658;2023-03-19T09:02:20;100990.18;;;13.27;63.45
22572;BME280;11452;53.368;14.658;2023-03-19T09:07:26;100984.03;;;13.18;63.66
22572;BME280;11452;53.368;14.658;2023-03-19T09:12:32;100990.84;;;13.24;64.31
22572;BME280;11452;53.368;14.658;2023-03-19T09:17:37;100994.67;;;13.20;64.81
22572;BME280;11452;53.368;14.658;2023-03-19T09:22:45;101006.56;;;13.23;65.40
22572;BME280;11452;53.368;14.658;2023-03-19T09:27:50;101009.93;;;13.26;66.35
22572;BME280;11452;53.368;14.658;2023-03-19T09:32:55;101019.14;;;13.29;67.52
22572;BME280;11452;53.368;14.658;2023-03-19T09:38:01;101034.38;;;13.29;68.17
22572;BME280;11452;53.368;14.658;2023-03-19T09:48:53;101028.83;;;13.32;69.83
22572;BME280;11452;53.368;14.658;2023-03-19T09:54:02;101025.73;;;13.38;70.68
22572;BME280;11452;53.368;14.658;2023-03-19T09:59:08;101032.42;;;13.59;71.04
22572;BME280;11452;53.368;14.658;2023-03-19T10:04:41;101011.06;;;13.50;70.80
22572;BME280;11452;53.368;14.658;2023-03-19T10:10:01;100999.58;;;13.34;70.82
22572;BME280;11452;53.368;14.658;2023-03-19T10:15:16;100978.38;;;13.23;72.00
22572;BME280;11452;53.368;14.658;2023-03-19T10:25:42;100962.30;;;13.64;73.37
22572;BME280;11452;53.368;14.658;2023-03-19T10:31:17;100979.02;;;13.89;73.55
22572;BME280;11452;53.368;14.658;2023-03-19T10:36:08;100965.72;;;14.00;73.59
22572;BME280;11452;53.368;14.658;2023-03-19T10:46:36;100950.48;;;14.13;73.99
22572;BME280;11452;53.368;14.658;2023-03-19T10:51:34;100942.68;;;14.35;74.46
22572;BME280;11452;53.368;14.658;2023-03-19T10:56:44;100938.44;;;14.45;74.51
22572;BME280;11452;53.368;14.658;2023-03-19T11:02:01;100962.48;;;14.54;74.46
22572;BME280;11452;53.368;14.658;2023-03-19T11:07:10;100961.41;;;14.57;75.28
22572;BME280;11452;53.368;14.658;2023-03-19T11:12:22;100962.86;;;14.68;75.34
22572;BME280;11452;53.368;14.658;2023-03-19T11:17:45;100961.52;;;14.68;75.01
22572;BME280;11452;53.368;14.658;2023-03-19T11:22:52;100960.69;;;14.47;74.56
22572;BME280;11452;53.368;14.658;2023-03-19T11:28:11;100962.55;;;14.47;75.06
22572;BME280;11452;53.368;14.658;2023-03-19T11:39:26;100961.61;;;14.41;74.58
22572;BME280;11452;53.368;14.658;2023-03-19T11:55:50;100938.13;;;13.91;75.38
22572;BME280;11452;53.368;14.658;2023-03-19T12:01:09;100939.78;;;13.86;76.22
22572;BME280;11452;53.368;14.658;2023-03-19T12:11:27;100942.75;;;13.89;76.50
22572;BME280;11452;53.368;14.658;2023-03-19T12:16:51;100935.58;;;14.02;77.31
22572;BME280;11452;53.368;14.658;2023-03-19T12:22:19;100934.03;;;14.37;77.95
22572;BME280;11452;53.368;14.658;2023-03-19T12:27:31;100934.20;;;14.61;77.89
22572;BME280;11452;53.368;14.658;2023-03-19T12:38:19;100937.13;;;14.51;79.18
22572;BME280;11452;53.368;14.658;2023-03-19T12:49:04;100933.53;;;14.96;79.26
22572;BME280;11452;53.368;14.658;2023-03-19T12:54:24;100940.34;;;15.19;78.12
22572;BME280;11452;53.368;14.658;2023-03-19T13:05:02;100934.87;;;15.45;79.24
22572;BME280;11452;53.368;14.658;2023-03-19T13:10:09;100918.80;;;15.74;78.66
22572;BME280;11452;53.368;14.658;2023-03-19T13:15:33;100914.80;;;15.85;78.98
22572;BME280;11452;53.368;14.658;2023-03-19T13:25:58;100904.29;;;16.34;78.24
22572;BME280;11452;53.368;14.658;2023-03-19T13:31:19;100904.33;;;16.45;77.35
22572;BME280;11452;53.368;14.658;2023-03-19T13:36:28;100906.31;;;16.60;77.55
22572;BME280;11452;53.368;14.658;2023-03-19T13:46:46;100900.84;;;16.95;77.44
22572;BME280;11452;53.368;14.658;2023-03-19T13:51:57;100909.19;;;17.25;75.94
22572;BME280;11452;53.368;14.658;2023-03-19T14:07:34;100904.48;;;17.33;74.18
22572;BME280;11452;53.368;14.658;2023-03-19T14:12:42;100905.47;;;17.26;73.04
22572;BME280;11452;53.368;14.658;2023-03-19T14:17:54;100914.59;;;17.03;73.33
22572;BME280;11452;53.368;14.658;2023-03-19T14:23:16;100905.34;;;17.34;74.48
22572;BME280;11452;53.368;14.658;2023-03-19T14:29:13;100902.84;;;17.58;73.58
22572;BME280;11452;53.368;14.658;2023-03-19T14:33:43;100902.46;;;17.69;73.03
22572;BME280;11452;53.368;14.658;2023-03-19T14:54:51;100899.20;;;17.43;69.95
22572;BME280;11452;53.368;14.658;2023-03-19T14:59:57;100899.89;;;17.56;70.34
22572;BME280;11452;53.368;14.658;2023-03-19T15:05:22;100898.05;;;17.62;69.14
22572;BME280;11452;53.368;14.658;2023-03-19T15:16:05;100897.73;;;17.33;67.73
22572;BME280;11452;53.368;14.658;2023-03-19T15:21:10;100907.45;;;17.13;67.61
22572;BME280;11452;53.368;14.658;2023-03-19T15:26:28;100897.39;;;17.15;67.97
22572;BME280;11452;53.368;14.658;2023-03-19T15:31:45;100895.30;;;17.19;68.37
22572;BME280;11452;53.368;14.658;2023-03-19T15:36:57;100899.02;;;17.07;68.75
22572;BME280;11452;53.368;14.658;2023-03-19T15:42:03;100898.49;;;17.13;68.80
22572;BME280;11452;53.368;14.658;2023-03-19T15:47:12;100899.36;;;17.24;69.18
22572;BME280;11452;53.368;14.658;2023-03-19T15:52:18;100908.06;;;17.11;68.54
22572;BME280;11452;53.368;14.658;2023-03-19T15:57:24;100904.41;;;17.07;68.50
22572;BME280;11452;53.368;14.658;2023-03-19T16:02:32;100911.87;;;17.09;68.48
22572;BME280;11452;53.368;14.658;2023-03-19T16:07:42;100911.66;;;17.06;68.23
22572;BME280;11452;53.368;14.658;2023-03-19T16:12:49;100920.86;;;17.04;68.50
22572;BME280;11452;53.368;14.658;2023-03-19T16:17:54;100912.25;;;17.15;68.72
22572;BME280;11452;53.368;14.658;2023-03-19T16:23:00;100910.29;;;17.23;68.85
22572;BME280;11452;53.368;14.658;2023-03-19T16:28:13;100913.20;;;17.31;68.33
22572;BME280;11452;53.368;14.658;2023-03-19T16:33:14;100920.36;;;17.21;68.05
22572;BME280;11452;53.368;14.658;2023-03-19T16:38:24;100933.48;;;17.09;67.31
22572;BME280;11452;53.368;14.658;2023-03-19T16:43:32;100934.34;;;16.81;67.37
22572;BME280;11452;53.368;14.658;2023-03-19T16:48:39;100939.71;;;16.70;67.60
22572;BME280;11452;53.368;14.658;2023-03-19T16:53:45;100937.22;;;16.50;67.67
22572;BME280;11452;53.368;14.658;2023-03-19T16:58:52;100934.72;;;16.31;67.75
22572;BME280;11452;53.368;14.658;2023-03-19T17:03:58;100940.77;;;16.10;67.81
22572;BME280;11452;53.368;14.658;2023-03-19T17:09:05;100943.14;;;15.91;68.18
22572;BME280;11452;53.368;14.658;2023-03-19T17:14:17;100939.20;;;15.66;68.66
22572;BME280;11452;53.368;14.658;2023-03-19T17:19:24;100945.16;;;15.45;68.86
22572;BME280;11452;53.368;14.658;2023-03-19T17:24:32;100941.01;;;15.29;69.24
22572;BME280;11452;53.368;14.658;2023-03-19T17:29:38;100948.42;;;15.07;69.42
22572;BME280;11452;53.368;14.658;2023-03-19T17:34:43;100948.50;;;14.74;70.04
22572;BME280;11452;53.368;14.658;2023-03-19T17:39:49;100952.10;;;14.55;70.79
22572;BME280;11452;53.368;14.658;2023-03-19T17:44:55;100953.98;;;14.28;71.33
22572;BME280;11452;53.368;14.658;2023-03-19T17:50:02;100956.44;;;14.11;72.27
22572;BME280;11452;53.368;14.658;2023-03-19T17:55:18;100952.46;;;14.04;72.71
22572;BME280;11452;53.368;14.658;2023-03-19T18:00:24;100959.02;;;13.93;73.46
22572;BME280;11452;53.368;14.658;2023-03-19T18:05:29;100960.51;;;13.84;74.15
22572;BME280;11452;53.368;14.658;2023-03-19T18:10:35;100965.36;;;13.72;74.10
22572;BME280;11452;53.368;14.658;2023-03-19T18:15:42;100964.55;;;13.50;74.42
22572;BME280;11452;53.368;14.658;2023-03-19T18:20:49;100962.16;;;13.38;75.00
22572;BME280;11452;53.368;14.658;2023-03-19T18:25:55;100971.58;;;13.24;75.88
22572;BME280;11452;53.368;14.658;2023-03-19T18:31:01;100982.21;;;13.18;76.32
22572;BME280;11452;53.368;14.658;2023-03-19T18:36:07;100980.09;;;13.09;76.69
22572;BME280;11452;53.368;14.658;2023-03-19T18:41:17;100983.25;;;13.09;77.46
22572;BME280;11452;53.368;14.658;2023-03-19T18:46:27;100973.67;;;13.12;77.88
22572;BME280;11452;53.368;14.658;2023-03-19T18:51:33;100975.09;;;13.03;77.45
22572;BME280;11452;53.368;14.658;2023-03-19T18:56:39;100962.17;;;12.89;77.85
22572;BME280;11452;53.368;14.658;2023-03-19T19:01:47;100969.81;;;12.80;77.98
22572;BME280;11452;53.368;14.658;2023-03-19T19:06:53;100975.09;;;12.61;78.42
22572;BME280;11452;53.368;14.658;2023-03-19T19:11:59;100969.61;;;12.55;78.57
22572;BME280;11452;53.368;14.658;2023-03-19T19:17:05;100981.56;;;12.42;78.79
22572;BME280;11452;53.368;14.658;2023-03-19T19:22:16;100979.69;;;12.29;79.35
22572;BME280;11452;53.368;14.658;2023-03-19T19:27:23;100976.31;;;12.25;79.74
22572;BME280;11452;53.368;14.658;2023-03-19T19:32:30;100973.81;;;12.15;79.97
22572;BME280;11452;53.368;14.658;2023-03-19T19:37:36;100974.94;;;12.11;80.45
22572;BME280;11452;53.368;14.658;2023-03-19T19:42:42;100976.83;;;12.02;80.70
22572;BME280;11452;53.368;14.658;2023-03-19T19:47:49;100977.05;;;11.90;81.06
22572;BME280;11452;53.368;14.658;2023-03-19T19:52:57;100982.22;;;11.86;81.49
22572;BME280;11452;53.368;14.658;2023-03-19T19:58:03;100986.80;;;11.84;81.74
22572;BME280;11452;53.368;14.658;2023-03-19T20:03:20;100984.52;;;11.85;81.98
22572;BME280;11452;53.368;14.658;2023-03-19T20:08:26;100993.20;;;11.89;82.37
22572;BME280;11452;53.368;14.658;2023-03-19T20:13:33;100992.69;;;11.98;82.57
22572;BME280;11452;53.368;14.658;2023-03-19T20:18:40;100988.02;;;12.01;82.51
22572;BME280;11452;53.368;14.658;2023-03-19T20:23:47;100984.48;;;12.01;82.43
22572;BME280;11452;53.368;14.658;2023-03-19T20:28:54;100981.89;;;11.99;82.11
22572;BME280;11452;53.368;14.658;2023-03-19T20:34:00;100983.83;;;11.89;82.02
22572;BME280;11452;53.368;14.658;2023-03-19T20:39:06;100985.33;;;11.78;82.29
22572;BME280;11452;53.368;14.658;2023-03-19T20:44:19;100986.36;;;11.76;82.83
22572;BME280;11452;53.368;14.658;2023-03-19T20:49:20;100983.81;;;11.82;83.30
22572;BME280;11452;53.368;14.658;2023-03-19T20:54:26;100985.08;;;11.74;83.52
22572;BME280;11452;53.368;14.658;2023-03-19T20:59:32;100999.89;;;11.82;84.25
22572;BME280;11452;53.368;14.658;2023-03-19T21:04:37;100987.27;;;11.84;84.36
22572;BME280;11452;53.368;14.658;2023-03-19T21:09:43;100990.44;;;11.90;84.50
22572;BME280;11452;53.368;14.658;2023-03-19T21:14:48;100983.79;;;11.97;84.82
22572;BME280;11452;53.368;14.658;2023-03-19T21:19:54;100984.56;;;11.99;85.13
22572;BME280;11452;53.368;14.658;2023-03-19T21:25:12;100983.54;;;12.09;85.36
22572;BME280;11452;53.368;14.658;2023-03-19T21:30:13;100978.48;;;12.11;85.51
22572;BME280;11452;53.368;14.658;2023-03-19T21:35:23;100978.09;;;12.10;85.40
22572;BME280;11452;53.368;14.658;2023-03-19T21:40:29;100980.55;;;12.22;85.86
22572;BME280;11452;53.368;14.658;2023-03-19T21:45:35;100979.63;;;12.37;85.92
22572;BME280;11452;53.368;14.658;2023-03-19T21:50:41;100975.81;;;12.48;85.94
22572;BME280;11452;53.368;14.658;2023-03-19T21:55:47;100974.98;;;12.55;85.49
22572;BME280;11452;53.368;14.658;2023-03-19T22:00:54;100973.83;;;12.66;85.11
22572;BME280;11452;53.368;14.658;2023-03-19T22:06:00;100973.17;;;12.70;84.12
22572;BME280;11452;53.368;14.658;2023-03-19T22:11:11;100973.63;;;12.62;83.51
22572;BME280;11452;53.368;14.658;2023-03-19T22:16:20;100971.34;;;12.56;83.10
22572;BME280;11452;53.368;14.658;2023-03-19T22:21:27;100972.84;;;12.39;82.45
22572;BME280;11452;53.368;14.658;2023-03-19T22:26:38;100963.52;;;12.30;82.61
22572;BME280;11452;53.368;14.658;2023-03-19T22:31:46;100963.16;;;12.36;82.99
22572;BME280;11452;53.368;14.658;2023-03-19T22:36:53;100961.25;;;12.45;83.14
22572;BME280;11452;53.368;14.658;2023-03-19T22:41:59;100960.02;;;12.51;83.16
22572;BME280;11452;53.368;14.658;2023-03-19T22:47:04;100952.84;;;12.52;83.14
22572;BME280;11452;53.368;14.658;2023-03-19T22:52:11;100955.25;;;12.56;83.02
22572;BME280;11452;53.368;14.658;2023-03-19T22:57:17;100959.45;;;12.53;83.11
22572;BME280;11452;53.368;14.658;2023-03-19T23:02:22;100953.34;;;12.58;83.17
22572;BME280;11452;53.368;14.658;2023-03-19T23:07:28;100952.19;;;12.55;83.03
22572;BME280;11452;53.368;14.658;2023-03-19T23:12:33;100959.27;;;12.56;82.82
22572;BME280;11452;53.368;14.658;2023-03-19T23:17:39;100954.34;;;12.34;82.12
22572;BME280;11452;53.368;14.658;2023-03-19T23:22:45;100952.32;;;12.24;81.76
22572;BME280;11452;53.368;14.658;2023-03-19T23:27:53;100955.11;;;12.06;81.89
22572;BME280;11452;53.368;14.658;2023-03-19T23:33:01;100957.30;;;12.00;81.61
22572;BME280;11452;53.368;14.658;2023-03-19T23:38:08;100952.47;;;11.91;81.80
22572;BME280;11452;53.368;14.658;2023-03-19T23:43:17;100951.42;;;11.86;81.96
22572;BME280;11452;53.368;14.658;2023-03-19T23:48:34;100947.58;;;11.83;82.74
22572;BME280;11452;53.368;14.658;2023-03-19T23:53:44;100952.33;;;11.78;83.30
22572;BME280;11452;53.368;14.658;2023-03-19T23:58:52;100938.95;;;11.69;83.05
